sensor_id;sensor_type;location;lat;lon;timestamp;P1;durP1;ratioP1;P2;durP2;ratioP2
43670;SDS011;29267;50.906;7.248;2023-06-10T00:01:43;8.40;;;4.93;;
43670;SDS011;29267;50.906;7.248;2023-06-10T00:04:12;8.10;;;4.85;;
43670;SDS011;29267;50.906;7.248;2023-06-10T00:06:38;7.28;;;5.53;;
43670;SDS011;29267;50.906;7.248;2023-06-10T00:09:04;11.05;;;5.10;;
43670;SDS011;29267;50.906;7.248;2023-06-10T00:11:31;8.38;;;4.65;;
43670;SDS011;29267;50.906;7.248;2023-06-10T00:13:59;15.55;;;5.28;;
43670;SDS011;29267;50.906;7.248;2023-06-10T00:16:25;6.38;;;5.20;;
43670;SDS011;29267;50.906;7.248;2023-06-10T00:18:51;8.35;;;5.53;;
43670;SDS011;29267;50.906;7.248;2023-06-10T00:21:17;9.23;;;5.22;;
43670;SDS011;29267;50.906;7.248;2023-06-10T00:23:43;6.82;;;4.85;;
43670;SDS011;29267;50.906;7.248;2023-06-10T00:26:09;7.50;;;4.60;;
43670;SDS011;29267;50.906;7.248;2023-06-10T00:28:35;6.78;;;4.75;;
43670;SDS011;29267;50.906;7.248;2023-06-10T00:31:01;8.95;;;5.05;;
43670;SDS011;29267;50.906;7.248;2023-06-10T00:33:27;7.68;;;4.82;;
43670;SDS011;29267;50.906;7.248;2023-06-10T00:35:53;7.82;;;5.65;;
43670;SDS011;29267;50.906;7.248;2023-06-10T00:38:18;13.30;;;5.72;;
43670;SDS011;29267;50.906;7.248;2023-06-10T00:40:44;6.97;;;4.85;;
43670;SDS011;29267;50.906;7.248;2023-06-10T00:43:10;10.60;;;5.30;;
43670;SDS011;29267;50.906;7.248;2023-06-10T00:45:35;7.00;;;4.68;;
43670;SDS011;29267;50.906;7.248;2023-06-10T00:48:01;7.95;;;5.97;;
43670;SDS011;29267;50.906;7.248;2023-06-10T00:50:28;8.98;;;5.15;;
43670;SDS011;29267;50.906;7.248;2023-06-10T00:52:54;9.35;;;5.68;;
43670;SDS011;29267;50.906;7.248;2023-06-10T00:55:20;7.75;;;5.07;;
43670;SDS011;29267;50.906;7.248;2023-06-10T00:57:46;8.70;;;5.43;;
43670;SDS011;29267;50.906;7.248;2023-06-10T01:00:13;7.85;;;5.13;;
43670;SDS011;29267;50.906;7.248;2023-06-10T01:02:40;10.82;;;5.35;;
43670;SDS011;29267;50.906;7.248;2023-06-10T01:05:06;7.97;;;5.47;;
43670;SDS011;29267;50.906;7.248;2023-06-10T01:07:36;11.57;;;5.80;;
43670;SDS011;29267;50.906;7.248;2023-06-10T01:12:50;8.55;;;5.20;;
43670;SDS011;29267;50.906;7.248;2023-06-10T01:15:24;8.93;;;5.05;;
43670;SDS011;29267;50.906;7.248;2023-06-10T01:17:57;5.93;;;4.40;;
43670;SDS011;29267;50.906;7.248;2023-06-10T01:22:53;10.13;;;6.03;;
43670;SDS011;29267;50.906;7.248;2023-06-10T01:25:19;9.18;;;5.45;;
43670;SDS011;29267;50.906;7.248;2023-06-10T01:27:59;8.27;;;5.13;;
43670;SDS011;29267;50.906;7.248;2023-06-10T01:30:31;8.05;;;5.85;;
43670;SDS011;29267;50.906;7.248;2023-06-10T01:33:05;8.15;;;5.10;;
43670;SDS011;29267;50.906;7.248;2023-06-10T01:35:33;7.28;;;5.22;;
43670;SDS011;29267;50.906;7.248;2023-06-10T01:38:02;13.98;;;5.57;;
43670;SDS011;29267;50.906;7.248;2023-06-10T01:40:28;7.80;;;5.18;;
43670;SDS011;29267;50.906;7.248;2023-06-10T01:42:55;9.98;;;5.10;;
43670;SDS011;29267;50.906;7.248;2023-06-10T01:45:20;8.32;;;5.47;;
43670;SDS011;29267;50.906;7.248;2023-06-10T01:47:46;9.07;;;5.60;;
43670;SDS011;29267;50.906;7.248;2023-06-10T01:50:11;8.18;;;5.90;;
43670;SDS011;29267;50.906;7.248;2023-06-10T01:52:37;11.40;;;5.22;;
43670;SDS011;29267;50.906;7.248;2023-06-10T01:55:03;10.48;;;6.00;;
43670;SDS011;29267;50.906;7.248;2023-06-10T01:57:29;8.48;;;5.45;;
43670;SDS011;29267;50.906;7.248;2023-06-10T01:59:55;7.68;;;5.95;;
43670;SDS011;29267;50.906;7.248;2023-06-10T02:02:20;10.57;;;5.03;;
43670;SDS011;29267;50.906;7.248;2023-06-10T02:04:47;7.10;;;5.70;;
43670;SDS011;29267;50.906;7.248;2023-06-10T02:07:12;7.38;;;4.88;;
43670;SDS011;29267;50.906;7.248;2023-06-10T02:09:38;7.72;;;5.15;;
43670;SDS011;29267;50.906;7.248;2023-06-10T02:12:04;8.45;;;5.60;;
43670;SDS011;29267;50.906;7.248;2023-06-10T02:14:31;6.95;;;5.30;;
43670;SDS011;29267;50.906;7.248;2023-06-10T02:16:57;7.25;;;5.60;;
43670;SDS011;29267;50.906;7.248;2023-06-10T02:19:23;9.07;;;5.43;;
43670;SDS011;29267;50.906;7.248;2023-06-10T02:21:50;8.20;;;5.65;;
43670;SDS011;29267;50.906;7.248;2023-06-10T02:24:15;8.85;;;5.10;;
43670;SDS011;29267;50.906;7.248;2023-06-10T02:26:41;9.77;;;5.53;;
43670;SDS011;29267;50.906;7.248;2023-06-10T02:29:06;8.65;;;5.15;;
43670;SDS011;29267;50.906;7.248;2023-06-10T02:31:32;9.35;;;5.43;;
43670;SDS011;29267;50.906;7.248;2023-06-10T02:34:00;10.55;;;6.03;;
43670;SDS011;29267;50.906;7.248;2023-06-10T02:36:26;10.20;;;5.45;;
43670;SDS011;29267;50.906;7.248;2023-06-10T02:38:52;6.93;;;5.05;;
43670;SDS011;29267;50.906;7.248;2023-06-10T02:41:18;8.07;;;5.28;;
43670;SDS011;29267;50.906;7.248;2023-06-10T02:43:44;7.80;;;5.22;;
43670;SDS011;29267;50.906;7.248;2023-06-10T02:46:10;9.07;;;5.80;;
43670;SDS011;29267;50.906;7.248;2023-06-10T02:48:42;9.32;;;5.72;;
43670;SDS011;29267;50.906;7.248;2023-06-10T02:51:11;7.55;;;5.00;;
43670;SDS011;29267;50.906;7.248;2023-06-10T02:53:37;7.47;;;5.07;;
43670;SDS011;29267;50.906;7.248;2023-06-10T02:56:02;6.60;;;4.47;;
43670;SDS011;29267;50.906;7.248;2023-06-10T02:58:28;7.78;;;5.32;;
43670;SDS011;29267;50.906;7.248;2023-06-10T03:00:54;8.20;;;5.28;;
43670;SDS011;29267;50.906;7.248;2023-06-10T03:03:20;7.47;;;4.43;;
43670;SDS011;29267;50.906;7.248;2023-06-10T03:05:47;13.02;;;5.65;;
43670;SDS011;29267;50.906;7.248;2023-06-10T03:08:13;6.15;;;4.82;;
43670;SDS011;29267;50.906;7.248;2023-06-10T03:10:39;7.72;;;5.20;;
43670;SDS011;29267;50.906;7.248;2023-06-10T03:13:04;7.65;;;5.45;;
43670;SDS011;29267;50.906;7.248;2023-06-10T03:15:30;6.95;;;5.32;;
43670;SDS011;29267;50.906;7.248;2023-06-10T03:17:57;9.32;;;5.43;;
43670;SDS011;29267;50.906;7.248;2023-06-10T03:20:27;15.00;;;5.03;;
43670;SDS011;29267;50.906;7.248;2023-06-10T03:22:53;7.95;;;5.15;;
43670;SDS011;29267;50.906;7.248;2023-06-10T03:25:19;5.53;;;4.03;;
43670;SDS011;29267;50.906;7.248;2023-06-10T03:27:45;8.25;;;5.20;;
43670;SDS011;29267;50.906;7.248;2023-06-10T03:30:12;11.32;;;5.45;;
43670;SDS011;29267;50.906;7.248;2023-06-10T03:32:38;8.65;;;5.00;;
43670;SDS011;29267;50.906;7.248;2023-06-10T03:35:04;10.82;;;4.20;;
43670;SDS011;29267;50.906;7.248;2023-06-10T03:37:31;6.82;;;4.07;;
43670;SDS011;29267;50.906;7.248;2023-06-10T03:39:57;9.02;;;5.53;;
43670;SDS011;29267;50.906;7.248;2023-06-10T03:42:22;9.43;;;5.50;;
43670;SDS011;29267;50.906;7.248;2023-06-10T03:44:48;6.63;;;4.53;;
43670;SDS011;29267;50.906;7.248;2023-06-10T03:47:13;7.47;;;5.30;;
43670;SDS011;29267;50.906;7.248;2023-06-10T03:49:39;7.90;;;4.88;;
43670;SDS011;29267;50.906;7.248;2023-06-10T03:52:05;6.38;;;5.03;;
43670;SDS011;29267;50.906;7.248;2023-06-10T03:54:31;11.93;;;5.07;;
43670;SDS011;29267;50.906;7.248;2023-06-10T03:56:59;6.95;;;4.95;;
43670;SDS011;29267;50.906;7.248;2023-06-10T03:59:25;9.55;;;5.05;;
43670;SDS011;29267;50.906;7.248;2023-06-10T04:01:50;6.40;;;4.00;;
43670;SDS011;29267;50.906;7.248;2023-06-10T04:04:16;8.95;;;4.78;;
43670;SDS011;29267;50.906;7.248;2023-06-10T04:06:42;8.45;;;4.70;;
43670;SDS011;29267;50.906;7.248;2023-06-10T04:09:08;6.85;;;4.05;;
43670;SDS011;29267;50.906;7.248;2023-06-10T04:11:34;11.35;;;4.50;;
43670;SDS011;29267;50.906;7.248;2023-06-10T04:14:00;5.40;;;4.50;;
43670;SDS011;29267;50.906;7.248;2023-06-10T04:16:26;7.28;;;4.72;;
43670;SDS011;29267;50.906;7.248;2023-06-10T04:18:52;7.13;;;5.15;;
43670;SDS011;29267;50.906;7.248;2023-06-10T04:21:18;8.77;;;4.97;;
43670;SDS011;29267;50.906;7.248;2023-06-10T04:23:44;9.02;;;4.43;;
43670;SDS011;29267;50.906;7.248;2023-06-10T04:26:09;6.45;;;4.38;;
43670;SDS011;29267;50.906;7.248;2023-06-10T04:28:37;6.50;;;4.22;;
43670;SDS011;29267;50.906;7.248;2023-06-10T04:31:03;7.38;;;4.05;;
43670;SDS011;29267;50.906;7.248;2023-06-10T04:33:29;7.00;;;5.00;;
43670;SDS011;29267;50.906;7.248;2023-06-10T04:35:55;6.78;;;4.45;;
43670;SDS011;29267;50.906;7.248;2023-06-10T04:38:20;5.72;;;3.80;;
43670;SDS011;29267;50.906;7.248;2023-06-10T04:40:46;6.32;;;4.03;;
43670;SDS011;29267;50.906;7.248;2023-06-10T04:43:12;8.20;;;4.60;;
43670;SDS011;29267;50.906;7.248;2023-06-10T04:45:38;7.30;;;4.20;;
43670;SDS011;29267;50.906;7.248;2023-06-10T04:48:04;8.40;;;4.00;;
43670;SDS011;29267;50.906;7.248;2023-06-10T04:50:30;6.60;;;4.38;;
43670;SDS011;29267;50.906;7.248;2023-06-10T04:52:58;6.85;;;3.58;;
43670;SDS011;29267;50.906;7.248;2023-06-10T04:55:23;6.47;;;3.53;;
43670;SDS011;29267;50.906;7.248;2023-06-10T04:57:50;5.18;;;3.60;;
43670;SDS011;29267;50.906;7.248;2023-06-10T05:00:16;6.07;;;3.40;;
43670;SDS011;29267;50.906;7.248;2023-06-10T05:02:42;7.07;;;3.65;;
43670;SDS011;29267;50.906;7.248;2023-06-10T05:05:09;4.82;;;3.47;;
43670;SDS011;29267;50.906;7.248;2023-06-10T05:07:36;4.70;;;3.58;;
43670;SDS011;29267;50.906;7.248;2023-06-10T05:10:01;6.32;;;3.92;;
43670;SDS011;29267;50.906;7.248;2023-06-10T05:12:28;5.47;;;3.45;;
43670;SDS011;29267;50.906;7.248;2023-06-10T05:14:53;5.45;;;3.45;;
43670;SDS011;29267;50.906;7.248;2023-06-10T05:17:19;4.63;;;3.47;;
43670;SDS011;29267;50.906;7.248;2023-06-10T05:19:45;6.53;;;2.97;;
43670;SDS011;29267;50.906;7.248;2023-06-10T05:22:12;5.22;;;3.38;;
43670;SDS011;29267;50.906;7.248;2023-06-10T05:24:38;6.82;;;3.90;;
43670;SDS011;29267;50.906;7.248;2023-06-10T05:27:04;9.43;;;2.95;;
43670;SDS011;29267;50.906;7.248;2023-06-10T05:29:31;7.15;;;3.72;;
43670;SDS011;29267;50.906;7.248;2023-06-10T05:31:57;4.68;;;3.35;;
43670;SDS011;29267;50.906;7.248;2023-06-10T05:34:25;5.07;;;3.38;;
43670;SDS011;29267;50.906;7.248;2023-06-10T05:36:50;6.85;;;4.05;;
43670;SDS011;29267;50.906;7.248;2023-06-10T05:39:16;4.35;;;3.55;;
43670;SDS011;29267;50.906;7.248;2023-06-10T05:41:42;5.53;;;3.60;;
43670;SDS011;29267;50.906;7.248;2023-06-10T05:44:07;5.25;;;3.15;;
43670;SDS011;29267;50.906;7.248;2023-06-10T05:46:33;6.70;;;3.72;;
43670;SDS011;29267;50.906;7.248;2023-06-10T05:48:58;7.82;;;3.38;;
43670;SDS011;29267;50.906;7.248;2023-06-10T05:51:24;6.82;;;3.92;;
43670;SDS011;29267;50.906;7.248;2023-06-10T05:53:50;5.78;;;3.53;;
43670;SDS011;29267;50.906;7.248;2023-06-10T05:56:16;4.65;;;3.30;;
43670;SDS011;29267;50.906;7.248;2023-06-10T05:58:41;5.13;;;3.60;;
43670;SDS011;29267;50.906;7.248;2023-06-10T06:01:07;5.43;;;3.85;;
43670;SDS011;29267;50.906;7.248;2023-06-10T06:03:32;5.57;;;3.78;;
43670;SDS011;29267;50.906;7.248;2023-06-10T06:05:58;6.38;;;3.80;;
43670;SDS011;29267;50.906;7.248;2023-06-10T06:08:23;5.28;;;3.60;;
43670;SDS011;29267;50.906;7.248;2023-06-10T06:10:49;4.97;;;3.67;;
43670;SDS011;29267;50.906;7.248;2023-06-10T06:13:15;4.78;;;3.42;;
43670;SDS011;29267;50.906;7.248;2023-06-10T06:15:41;5.38;;;3.53;;
43670;SDS011;29267;50.906;7.248;2023-06-10T06:18:06;6.07;;;3.38;;
43670;SDS011;29267;50.906;7.248;2023-06-10T06:20:32;5.97;;;3.20;;
43670;SDS011;29267;50.906;7.248;2023-06-10T06:22:57;4.43;;;3.47;;
43670;SDS011;29267;50.906;7.248;2023-06-10T06:25:23;4.32;;;3.45;;
43670;SDS011;29267;50.906;7.248;2023-06-10T06:27:49;4.05;;;3.30;;
43670;SDS011;29267;50.906;7.248;2023-06-10T06:30:14;5.05;;;3.30;;
43670;SDS011;29267;50.906;7.248;2023-06-10T06:32:40;3.88;;;3.40;;
43670;SDS011;29267;50.906;7.248;2023-06-10T06:35:06;4.45;;;3.80;;
43670;SDS011;29267;50.906;7.248;2023-06-10T06:37:33;4.55;;;3.28;;
43670;SDS011;29267;50.906;7.248;2023-06-10T06:39:59;6.72;;;3.50;;
43670;SDS011;29267;50.906;7.248;2023-06-10T06:42:24;4.75;;;3.20;;
43670;SDS011;29267;50.906;7.248;2023-06-10T06:44:50;6.07;;;4.35;;
43670;SDS011;29267;50.906;7.248;2023-06-10T06:47:15;6.85;;;3.45;;
43670;SDS011;29267;50.906;7.248;2023-06-10T06:49:45;5.07;;;3.58;;
43670;SDS011;29267;50.906;7.248;2023-06-10T06:52:11;8.40;;;3.42;;
43670;SDS011;29267;50.906;7.248;2023-06-10T06:54:36;4.82;;;4.32;;
43670;SDS011;29267;50.906;7.248;2023-06-10T06:57:02;5.38;;;3.47;;
43670;SDS011;29267;50.906;7.248;2023-06-10T06:59:28;6.18;;;4.18;;
43670;SDS011;29267;50.906;7.248;2023-06-10T07:01:53;4.68;;;3.45;;
43670;SDS011;29267;50.906;7.248;2023-06-10T07:04:19;4.93;;;3.72;;
43670;SDS011;29267;50.906;7.248;2023-06-10T07:06:47;8.00;;;4.00;;
43670;SDS011;29267;50.906;7.248;2023-06-10T07:09:13;4.65;;;3.83;;
43670;SDS011;29267;50.906;7.248;2023-06-10T07:11:38;5.85;;;3.28;;
43670;SDS011;29267;50.906;7.248;2023-06-10T07:14:04;5.13;;;3.63;;
43670;SDS011;29267;50.906;7.248;2023-06-10T07:16:30;8.73;;;3.38;;
43670;SDS011;29267;50.906;7.248;2023-06-10T07:18:55;6.03;;;4.53;;
43670;SDS011;29267;50.906;7.248;2023-06-10T07:21:21;6.60;;;3.88;;
43670;SDS011;29267;50.906;7.248;2023-06-10T07:23:48;4.28;;;3.88;;
43670;SDS011;29267;50.906;7.248;2023-06-10T07:26:14;6.95;;;3.50;;
43670;SDS011;29267;50.906;7.248;2023-06-10T07:28:40;4.72;;;3.75;;
43670;SDS011;29267;50.906;7.248;2023-06-10T07:31:06;5.47;;;3.63;;
43670;SDS011;29267;50.906;7.248;2023-06-10T07:33:33;4.40;;;3.75;;
43670;SDS011;29267;50.906;7.248;2023-06-10T07:35:58;6.15;;;3.40;;
43670;SDS011;29267;50.906;7.248;2023-06-10T07:38:25;5.13;;;3.55;;
43670;SDS011;29267;50.906;7.248;2023-06-10T07:40:51;5.70;;;4.20;;
43670;SDS011;29267;50.906;7.248;2023-06-10T07:43:16;14.32;;;4.03;;
43670;SDS011;29267;50.906;7.248;2023-06-10T07:45:42;6.20;;;3.78;;
43670;SDS011;29267;50.906;7.248;2023-06-10T07:48:09;5.15;;;3.60;;
43670;SDS011;29267;50.906;7.248;2023-06-10T07:50:34;9.43;;;3.90;;
43670;SDS011;29267;50.906;7.248;2023-06-10T07:53:01;4.22;;;3.47;;
43670;SDS011;29267;50.906;7.248;2023-06-10T07:55:27;5.13;;;3.65;;
43670;SDS011;29267;50.906;7.248;2023-06-10T07:57:53;5.50;;;4.20;;
43670;SDS011;29267;50.906;7.248;2023-06-10T08:00:19;4.65;;;3.35;;
43670;SDS011;29267;50.906;7.248;2023-06-10T08:02:45;3.60;;;3.30;;
43670;SDS011;29267;50.906;7.248;2023-06-10T08:05:11;5.45;;;3.95;;
43670;SDS011;29267;50.906;7.248;2023-06-10T08:07:37;7.95;;;4.03;;
43670;SDS011;29267;50.906;7.248;2023-06-10T08:10:04;5.45;;;3.60;;
43670;SDS011;29267;50.906;7.248;2023-06-10T08:12:30;6.10;;;3.80;;
43670;SDS011;29267;50.906;7.248;2023-06-10T08:14:56;9.23;;;4.10;;
43670;SDS011;29267;50.906;7.248;2023-06-10T08:17:22;4.72;;;3.35;;
43670;SDS011;29267;50.906;7.248;2023-06-10T08:19:48;4.03;;;3.28;;
43670;SDS011;29267;50.906;7.248;2023-06-10T08:22:14;5.85;;;3.28;;
43670;SDS011;29267;50.906;7.248;2023-06-10T08:24:39;4.93;;;3.38;;
43670;SDS011;29267;50.906;7.248;2023-06-10T08:27:05;7.05;;;3.67;;
43670;SDS011;29267;50.906;7.248;2023-06-10T08:29:31;4.40;;;3.78;;
43670;SDS011;29267;50.906;7.248;2023-06-10T08:31:57;4.80;;;3.55;;
43670;SDS011;29267;50.906;7.248;2023-06-10T08:34:23;6.72;;;3.35;;
43670;SDS011;29267;50.906;7.248;2023-06-10T08:36:48;4.88;;;3.92;;
43670;SDS011;29267;50.906;7.248;2023-06-10T08:39:18;4.60;;;3.65;;
43670;SDS011;29267;50.906;7.248;2023-06-10T08:41:44;4.03;;;3.47;;
43670;SDS011;29267;50.906;7.248;2023-06-10T08:44:33;4.45;;;3.50;;
43670;SDS011;29267;50.906;7.248;2023-06-10T08:47:04;5.80;;;4.00;;
43670;SDS011;29267;50.906;7.248;2023-06-10T08:49:36;4.43;;;3.72;;
43670;SDS011;29267;50.906;7.248;2023-06-10T08:52:03;7.22;;;4.03;;
43670;SDS011;29267;50.906;7.248;2023-06-10T08:54:32;9.27;;;3.55;;
43670;SDS011;29267;50.906;7.248;2023-06-10T08:57:03;6.05;;;3.63;;
43670;SDS011;29267;50.906;7.248;2023-06-10T08:59:33;9.25;;;4.25;;
43670;SDS011;29267;50.906;7.248;2023-06-10T09:01:59;5.03;;;3.60;;
43670;SDS011;29267;50.906;7.248;2023-06-10T09:04:27;7.90;;;3.38;;
43670;SDS011;29267;50.906;7.248;2023-06-10T09:06:53;4.90;;;3.50;;
43670;SDS011;29267;50.906;7.248;2023-06-10T09:09:19;7.30;;;4.10;;
43670;SDS011;29267;50.906;7.248;2023-06-10T09:11:45;4.78;;;4.05;;
43670;SDS011;29267;50.906;7.248;2023-06-10T09:14:11;3.65;;;3.35;;
43670;SDS011;29267;50.906;7.248;2023-06-10T09:16:41;4.88;;;3.65;;
43670;SDS011;29267;50.906;7.248;2023-06-10T09:19:07;5.63;;;3.60;;
43670;SDS011;29267;50.906;7.248;2023-06-10T09:21:33;4.90;;;3.92;;
43670;SDS011;29267;50.906;7.248;2023-06-10T09:24:00;7.65;;;3.83;;
43670;SDS011;29267;50.906;7.248;2023-06-10T09:26:29;6.07;;;4.00;;
43670;SDS011;29267;50.906;7.248;2023-06-10T09:29:02;4.63;;;3.35;;
43670;SDS011;29267;50.906;7.248;2023-06-10T09:31:34;5.82;;;3.58;;
43670;SDS011;29267;50.906;7.248;2023-06-10T09:34:11;5.13;;;3.92;;
43670;SDS011;29267;50.906;7.248;2023-06-10T09:36:39;5.68;;;3.67;;
43670;SDS011;29267;50.906;7.248;2023-06-10T09:39:12;4.03;;;3.40;;
43670;SDS011;29267;50.906;7.248;2023-06-10T09:41:43;4.88;;;3.75;;
43670;SDS011;29267;50.906;7.248;2023-06-10T09:44:14;5.95;;;3.70;;
43670;SDS011;29267;50.906;7.248;2023-06-10T09:46:41;5.28;;;3.47;;
43670;SDS011;29267;50.906;7.248;2023-06-10T09:49:07;3.95;;;3.15;;
43670;SDS011;29267;50.906;7.248;2023-06-10T09:51:33;5.50;;;3.38;;
43670;SDS011;29267;50.906;7.248;2023-06-10T09:53:59;4.78;;;3.10;;
43670;SDS011;29267;50.906;7.248;2023-06-10T09:56:38;6.03;;;3.90;;
43670;SDS011;29267;50.906;7.248;2023-06-10T09:59:07;4.07;;;3.55;;
43670;SDS011;29267;50.906;7.248;2023-06-10T10:01:33;5.15;;;3.42;;
43670;SDS011;29267;50.906;7.248;2023-06-10T10:03:59;6.90;;;4.03;;
43670;SDS011;29267;50.906;7.248;2023-06-10T10:06:25;6.25;;;3.47;;
43670;SDS011;29267;50.906;7.248;2023-06-10T10:08:52;8.32;;;3.78;;
43670;SDS011;29267;50.906;7.248;2023-06-10T10:11:18;5.20;;;3.88;;
43670;SDS011;29267;50.906;7.248;2023-06-10T10:13:47;8.80;;;4.20;;
43670;SDS011;29267;50.906;7.248;2023-06-10T10:16:16;5.65;;;4.35;;
43670;SDS011;29267;50.906;7.248;2023-06-10T10:18:59;7.53;;;3.90;;
43670;SDS011;29267;50.906;7.248;2023-06-10T10:21:31;5.72;;;3.63;;
43670;SDS011;29267;50.906;7.248;2023-06-10T10:24:16;7.03;;;3.40;;
43670;SDS011;29267;50.906;7.248;2023-06-10T10:26:46;6.18;;;3.38;;
43670;SDS011;29267;50.906;7.248;2023-06-10T10:31:50;7.63;;;3.20;;
43670;SDS011;29267;50.906;7.248;2023-06-10T10:34:21;5.35;;;3.85;;
43670;SDS011;29267;50.906;7.248;2023-06-10T10:36:55;7.55;;;3.35;;
43670;SDS011;29267;50.906;7.248;2023-06-10T10:39:21;6.47;;;3.38;;
43670;SDS011;29267;50.906;7.248;2023-06-10T10:41:47;10.07;;;4.10;;
43670;SDS011;29267;50.906;7.248;2023-06-10T10:44:14;5.05;;;3.47;;
43670;SDS011;29267;50.906;7.248;2023-06-10T10:46:41;5.10;;;3.50;;
43670;SDS011;29267;50.906;7.248;2023-06-10T10:49:17;6.82;;;4.00;;
43670;SDS011;29267;50.906;7.248;2023-06-10T10:51:58;7.18;;;3.65;;
43670;SDS011;29267;50.906;7.248;2023-06-10T10:54:31;10.95;;;3.63;;
43670;SDS011;29267;50.906;7.248;2023-06-10T10:57:18;5.63;;;3.58;;
43670;SDS011;29267;50.906;7.248;2023-06-10T11:04:57;5.82;;;3.53;;
43670;SDS011;29267;50.906;7.248;2023-06-10T11:07:24;4.68;;;3.30;;
43670;SDS011;29267;50.906;7.248;2023-06-10T11:09:57;4.10;;;3.17;;
43670;SDS011;29267;50.906;7.248;2023-06-10T11:13:02;4.88;;;3.40;;
43670;SDS011;29267;50.906;7.248;2023-06-10T11:15:23;4.80;;;2.88;;
43670;SDS011;29267;50.906;7.248;2023-06-10T11:20:42;5.63;;;3.65;;
43670;SDS011;29267;50.906;7.248;2023-06-10T11:23:38;10.32;;;3.53;;
43670;SDS011;29267;50.906;7.248;2023-06-10T11:26:12;4.88;;;3.58;;
43670;SDS011;29267;50.906;7.248;2023-06-10T11:34:14;5.18;;;3.35;;
43670;SDS011;29267;50.906;7.248;2023-06-10T11:36:45;8.90;;;4.20;;
43670;SDS011;29267;50.906;7.248;2023-06-10T11:39:11;5.85;;;3.47;;
43670;SDS011;29267;50.906;7.248;2023-06-10T11:41:37;10.82;;;3.55;;
43670;SDS011;29267;50.906;7.248;2023-06-10T11:46:33;9.30;;;3.47;;
43670;SDS011;29267;50.906;7.248;2023-06-10T11:49:00;4.25;;;3.28;;
43670;SDS011;29267;50.906;7.248;2023-06-10T11:51:28;8.48;;;3.20;;
43670;SDS011;29267;50.906;7.248;2023-06-10T11:53:55;12.13;;;3.08;;
43670;SDS011;29267;50.906;7.248;2023-06-10T11:56:24;6.57;;;3.13;;
43670;SDS011;29267;50.906;7.248;2023-06-10T11:58:55;5.65;;;3.40;;
43670;SDS011;29267;50.906;7.248;2023-06-10T12:01:23;9.45;;;3.90;;
43670;SDS011;29267;50.906;7.248;2023-06-10T12:03:56;6.88;;;3.38;;
43670;SDS011;29267;50.906;7.248;2023-06-10T12:06:26;3.92;;;2.95;;
43670;SDS011;29267;50.906;7.248;2023-06-10T12:08:53;4.35;;;3.03;;
43670;SDS011;29267;50.906;7.248;2023-06-10T12:11:20;5.90;;;3.10;;
43670;SDS011;29267;50.906;7.248;2023-06-10T12:13:47;11.20;;;3.00;;
43670;SDS011;29267;50.906;7.248;2023-06-10T12:16:16;3.55;;;2.78;;
43670;SDS011;29267;50.906;7.248;2023-06-10T12:18:46;5.65;;;3.50;;
43670;SDS011;29267;50.906;7.248;2023-06-10T12:21:15;11.00;;;3.38;;
43670;SDS011;29267;50.906;7.248;2023-06-10T12:23:59;9.45;;;3.17;;
43670;SDS011;29267;50.906;7.248;2023-06-10T12:26:43;4.68;;;2.72;;
43670;SDS011;29267;50.906;7.248;2023-06-10T12:29:19;8.15;;;3.50;;
43670;SDS011;29267;50.906;7.248;2023-06-10T12:31:57;7.60;;;3.33;;
43670;SDS011;29267;50.906;7.248;2023-06-10T12:34:37;4.57;;;2.83;;
43670;SDS011;29267;50.906;7.248;2023-06-10T12:37:05;4.70;;;3.20;;
43670;SDS011;29267;50.906;7.248;2023-06-10T12:39:38;4.55;;;3.22;;
43670;SDS011;29267;50.906;7.248;2023-06-10T12:42:04;10.02;;;3.00;;
43670;SDS011;29267;50.906;7.248;2023-06-10T12:44:34;6.80;;;3.33;;
43670;SDS011;29267;50.906;7.248;2023-06-10T12:47:10;4.18;;;2.97;;
43670;SDS011;29267;50.906;7.248;2023-06-10T12:49:39;4.32;;;2.97;;
43670;SDS011;29267;50.906;7.248;2023-06-10T12:52:05;13.30;;;3.83;;
43670;SDS011;29267;50.906;7.248;2023-06-10T12:54:31;4.00;;;2.63;;
43670;SDS011;29267;50.906;7.248;2023-06-10T12:56:57;5.10;;;3.00;;
43670;SDS011;29267;50.906;7.248;2023-06-10T12:59:22;7.97;;;3.10;;
43670;SDS011;29267;50.906;7.248;2023-06-10T13:01:52;11.02;;;3.53;;
43670;SDS011;29267;50.906;7.248;2023-06-10T13:04:18;7.15;;;3.92;;
43670;SDS011;29267;50.906;7.248;2023-06-10T13:06:45;6.72;;;3.35;;
43670;SDS011;29267;50.906;7.248;2023-06-10T13:09:12;6.53;;;3.80;;
43670;SDS011;29267;50.906;7.248;2023-06-10T13:11:38;5.45;;;3.33;;
43670;SDS011;29267;50.906;7.248;2023-06-10T13:14:04;11.68;;;3.20;;
43670;SDS011;29267;50.906;7.248;2023-06-10T13:16:31;5.10;;;3.00;;
43670;SDS011;29267;50.906;7.248;2023-06-10T13:18:57;4.25;;;2.45;;
43670;SDS011;29267;50.906;7.248;2023-06-10T13:21:23;5.07;;;3.08;;
43670;SDS011;29267;50.906;7.248;2023-06-10T13:23:50;5.43;;;3.03;;
43670;SDS011;29267;50.906;7.248;2023-06-10T13:26:16;12.48;;;3.42;;
43670;SDS011;29267;50.906;7.248;2023-06-10T13:28:42;5.00;;;3.40;;
43670;SDS011;29267;50.906;7.248;2023-06-10T13:31:08;6.03;;;2.90;;
43670;SDS011;29267;50.906;7.248;2023-06-10T13:33:34;7.90;;;3.10;;
43670;SDS011;29267;50.906;7.248;2023-06-10T13:36:00;4.93;;;3.00;;
43670;SDS011;29267;50.906;7.248;2023-06-10T13:38:25;5.80;;;3.60;;
43670;SDS011;29267;50.906;7.248;2023-06-10T13:40:51;10.43;;;2.90;;
43670;SDS011;29267;50.906;7.248;2023-06-10T13:43:16;5.97;;;2.83;;
43670;SDS011;29267;50.906;7.248;2023-06-10T13:45:42;8.68;;;3.35;;
43670;SDS011;29267;50.906;7.248;2023-06-10T13:48:08;8.20;;;3.20;;
43670;SDS011;29267;50.906;7.248;2023-06-10T13:50:34;6.18;;;3.40;;
43670;SDS011;29267;50.906;7.248;2023-06-10T13:53:00;7.68;;;3.45;;
43670;SDS011;29267;50.906;7.248;2023-06-10T13:55:26;5.90;;;3.30;;
43670;SDS011;29267;50.906;7.248;2023-06-10T13:57:51;5.47;;;3.28;;
43670;SDS011;29267;50.906;7.248;2023-06-10T14:00:17;5.28;;;3.38;;
43670;SDS011;29267;50.906;7.248;2023-06-10T14:02:43;6.47;;;2.85;;
43670;SDS011;29267;50.906;7.248;2023-06-10T14:05:09;8.35;;;3.25;;
43670;SDS011;29267;50.906;7.248;2023-06-10T14:07:35;5.25;;;3.28;;
43670;SDS011;29267;50.906;7.248;2023-06-10T14:10:02;5.45;;;2.85;;
43670;SDS011;29267;50.906;7.248;2023-06-10T14:12:28;7.00;;;3.30;;
43670;SDS011;29267;50.906;7.248;2023-06-10T14:14:53;4.85;;;3.13;;
43670;SDS011;29267;50.906;7.248;2023-06-10T14:17:19;7.38;;;3.30;;
43670;SDS011;29267;50.906;7.248;2023-06-10T14:19:44;4.82;;;3.10;;
43670;SDS011;29267;50.906;7.248;2023-06-10T14:22:10;9.23;;;3.72;;
43670;SDS011;29267;50.906;7.248;2023-06-10T14:24:36;4.57;;;3.35;;
43670;SDS011;29267;50.906;7.248;2023-06-10T14:27:02;4.40;;;3.10;;
43670;SDS011;29267;50.906;7.248;2023-06-10T14:29:28;6.30;;;3.45;;
43670;SDS011;29267;50.906;7.248;2023-06-10T14:31:53;6.07;;;2.90;;
43670;SDS011;29267;50.906;7.248;2023-06-10T14:34:20;7.97;;;3.60;;
43670;SDS011;29267;50.906;7.248;2023-06-10T14:36:48;4.10;;;3.08;;
43670;SDS011;29267;50.906;7.248;2023-06-10T14:39:13;4.25;;;2.63;;
43670;SDS011;29267;50.906;7.248;2023-06-10T14:41:39;5.60;;;2.65;;
43670;SDS011;29267;50.906;7.248;2023-06-10T14:44:05;3.35;;;2.40;;
43670;SDS011;29267;50.906;7.248;2023-06-10T14:46:30;5.70;;;2.78;;
43670;SDS011;29267;50.906;7.248;2023-06-10T14:48:56;8.30;;;3.10;;
43670;SDS011;29267;50.906;7.248;2023-06-10T14:51:24;5.85;;;3.10;;
43670;SDS011;29267;50.906;7.248;2023-06-10T14:53:49;13.90;;;8.55;;
43670;SDS011;29267;50.906;7.248;2023-06-10T14:56:15;4.63;;;2.88;;
43670;SDS011;29267;50.906;7.248;2023-06-10T14:58:41;4.25;;;2.80;;
43670;SDS011;29267;50.906;7.248;2023-06-10T15:01:09;6.72;;;2.95;;
43670;SDS011;29267;50.906;7.248;2023-06-10T15:03:34;4.75;;;3.30;;
43670;SDS011;29267;50.906;7.248;2023-06-10T15:06:00;5.63;;;3.45;;
43670;SDS011;29267;50.906;7.248;2023-06-10T15:08:26;3.35;;;2.90;;
43670;SDS011;29267;50.906;7.248;2023-06-10T15:10:53;5.05;;;3.45;;